sensor_id;sensor_type;location;lat;lon;timestamp;pressure;altitude;pressure_sealevel;temperature;humidity
68230;BME280;55048;52.220;5.160;2022-09-09T00:03:42;100599.28;;;17.42;74.55
68230;BME280;55048;52.220;5.160;2022-09-09T00:06:23;100632.38;;;17.61;74.65
68230;BME280;55048;52.220;5.160;2022-09-09T00:09:20;100625.91;;;17.62;74.43
68230;BME280;55048;52.220;5.160;2022-09-09T00:11:55;100623.75;;;17.64;74.47
68230;BME280;55048;52.220;5.160;2022-09-09T00:17:11;100620.59;;;17.57;74.67
68230;BME280;55048;52.220;5.160;2022-09-09T00:19:49;100621.13;;;17.59;74.31
68230;BME280;55048;52.220;5.160;2022-09-09T00:22:19;100622.78;;;17.55;74.40
68230;BME280;55048;52.220;5.160;2022-09-09T00:27:40;100627.59;;;17.58;74.82
68230;BME280;55048;52.220;5.160;2022-09-09T00:30:20;100619.78;;;17.56;74.96
68230;BME280;55048;52.220;5.160;2022-09-09T00:32:59;100616.63;;;17.54;74.67
68230;BME280;55048;52.220;5.160;2022-09-09T00:35:36;100611.50;;;17.53;74.56
68230;BME280;55048;52.220;5.160;2022-09-09T00:38:18;100616.38;;;17.51;75.11
68230;BME280;55048;52.220;5.160;2022-09-09T00:41:00;100598.25;;;17.38;74.99
68230;BME280;55048;52.220;5.160;2022-09-09T00:43:32;100615.34;;;17.47;75.29
68230;BME280;55048;52.220;5.160;2022-09-09T00:46:02;100619.38;;;17.49;75.06
68230;BME280;55048;52.220;5.160;2022-09-09T00:48:58;100606.09;;;17.34;75.48
68230;BME280;55048;52.220;5.160;2022-09-09T00:51:37;100601.38;;;17.26;75.55
68230;BME280;55048;52.220;5.160;2022-09-09T00:54:15;100596.63;;;17.18;75.40
68230;BME280;55048;52.220;5.160;2022-09-09T00:57:03;100616.03;;;17.33;75.65
68230;BME280;55048;52.220;5.160;2022-09-09T00:59:42;100617.44;;;17.31;75.58
68230;BME280;55048;52.220;5.160;2022-09-09T01:02:18;100616.41;;;17.27;75.69
68230;BME280;55048;52.220;5.160;2022-09-09T01:04:47;100619.66;;;17.24;75.41
68230;BME280;55048;52.220;5.160;2022-09-09T01:07:21;100605.53;;;17.13;75.73
68230;BME280;55048;52.220;5.160;2022-09-09T01:09:59;100614.09;;;17.15;76.19
68230;BME280;55048;52.220;5.160;2022-09-09T01:12:34;100613.41;;;17.04;76.85
68230;BME280;55048;52.220;5.160;2022-09-09T01:15:10;100591.53;;;16.87;76.57
68230;BME280;55048;52.220;5.160;2022-09-09T01:17:53;100615.81;;;17.06;76.29
68230;BME280;55048;52.220;5.160;2022-09-09T01:20:31;100602.53;;;16.91;76.63
68230;BME280;55048;52.220;5.160;2022-09-09T01:23:35;100617.00;;;16.95;76.95
68230;BME280;55048;52.220;5.160;2022-09-09T01:26:18;100618.88;;;16.94;76.38
68230;BME280;55048;52.220;5.160;2022-09-09T01:28:49;100579.88;;;16.73;76.56
68230;BME280;55048;52.220;5.160;2022-09-09T01:31:30;100581.47;;;16.74;76.74
68230;BME280;55048;52.220;5.160;2022-09-09T01:33:58;100588.41;;;16.80;76.75
68230;BME280;55048;52.220;5.160;2022-09-09T01:39:08;100573.16;;;16.70;76.54
68230;BME280;55048;52.220;5.160;2022-09-09T01:41:35;100564.94;;;16.62;76.73
68230;BME280;55048;52.220;5.160;2022-09-09T01:44:07;100602.09;;;16.78;77.03
68230;BME280;55048;52.220;5.160;2022-09-09T01:46:35;100584.69;;;16.76;76.80
68230;BME280;55048;52.220;5.160;2022-09-09T01:49:03;100588.72;;;16.73;76.70
68230;BME280;55048;52.220;5.160;2022-09-09T01:51:30;100589.28;;;16.70;76.97
68230;BME280;55048;52.220;5.160;2022-09-09T01:53:59;100574.91;;;16.56;77.66
68230;BME280;55048;52.220;5.160;2022-09-09T01:59:07;100594.75;;;16.60;77.64
68230;BME280;55048;52.220;5.160;2022-09-09T02:01:44;100584.31;;;16.53;77.31
68230;BME280;55048;52.220;5.160;2022-09-09T02:07:08;100585.41;;;16.52;77.25
68230;BME280;55048;52.220;5.160;2022-09-09T02:09:40;100577.19;;;16.39;77.46
68230;BME280;55048;52.220;5.160;2022-09-09T02:12:13;100587.91;;;16.44;77.86
68230;BME280;55048;52.220;5.160;2022-09-09T02:14:50;100573.53;;;16.29;77.60
68230;BME280;55048;52.220;5.160;2022-09-09T02:17:25;100561.19;;;16.28;77.57
68230;BME280;55048;52.220;5.160;2022-09-09T02:20:11;100582.53;;;16.44;77.34
68230;BME280;55048;52.220;5.160;2022-09-09T02:23:07;100567.78;;;16.41;77.09
68230;BME280;55048;52.220;5.160;2022-09-09T02:25:36;100583.31;;;16.44;77.41
68230;BME280;55048;52.220;5.160;2022-09-09T02:28:14;100576.66;;;16.42;77.66
68230;BME280;55048;52.220;5.160;2022-09-09T02:30:42;100558.75;;;16.32;77.53
68230;BME280;55048;52.220;5.160;2022-09-09T02:33:11;100562.75;;;16.35;77.61
68230;BME280;55048;52.220;5.160;2022-09-09T02:35:43;100579.34;;;16.42;77.53
68230;BME280;55048;52.220;5.160;2022-09-09T02:38:12;100556.38;;;16.25;77.45
68230;BME280;55048;52.220;5.160;2022-09-09T02:40:42;100579.69;;;16.30;78.38
68230;BME280;55048;52.220;5.160;2022-09-09T02:43:08;100554.56;;;16.16;78.07
68230;BME280;55048;52.220;5.160;2022-09-09T02:45:51;100569.78;;;16.25;77.67
68230;BME280;55048;52.220;5.160;2022-09-09T02:48:31;100559.16;;;16.15;78.08
68230;BME280;55048;52.220;5.160;2022-09-09T02:51:10;100575.41;;;16.29;78.27
68230;BME280;55048;52.220;5.160;2022-09-09T02:53:49;100545.00;;;16.04;78.23
68230;BME280;55048;52.220;5.160;2022-09-09T02:56:20;100567.69;;;16.17;78.34
68230;BME280;55048;52.220;5.160;2022-09-09T02:58:49;100548.50;;;16.05;77.96
68230;BME280;55048;52.220;5.160;2022-09-09T03:01:17;100578.13;;;16.24;78.08
68230;BME280;55048;52.220;5.160;2022-09-09T03:03:43;100547.38;;;16.11;78.11
68230;BME280;55048;52.220;5.160;2022-09-09T03:06:12;100559.19;;;16.10;78.30
68230;BME280;55048;52.220;5.160;2022-09-09T03:08:38;100564.56;;;16.10;78.34
68230;BME280;55048;52.220;5.160;2022-09-09T03:11:04;100545.28;;;16.03;78.30
68230;BME280;55048;52.220;5.160;2022-09-09T03:13:33;100526.81;;;15.96;78.00
68230;BME280;55048;52.220;5.160;2022-09-09T03:15:58;100562.28;;;16.22;77.99
68230;BME280;55048;52.220;5.160;2022-09-09T03:18:25;100522.78;;;15.99;78.05
68230;BME280;55048;52.220;5.160;2022-09-09T03:20:53;100528.66;;;16.01;77.84
68230;BME280;55048;52.220;5.160;2022-09-09T03:23:19;100550.81;;;16.17;77.77
68230;BME280;55048;52.220;5.160;2022-09-09T03:25:48;100551.56;;;16.22;77.88
68230;BME280;55048;52.220;5.160;2022-09-09T03:28:15;100531.28;;;16.11;77.92
68230;BME280;55048;52.220;5.160;2022-09-09T03:30:42;100550.25;;;16.20;77.73
68230;BME280;55048;52.220;5.160;2022-09-09T03:33:07;100553.53;;;16.12;77.89
68230;BME280;55048;52.220;5.160;2022-09-09T03:35:33;100561.53;;;16.17;77.70
68230;BME280;55048;52.220;5.160;2022-09-09T03:37:59;100553.59;;;16.01;78.50
68230;BME280;55048;52.220;5.160;2022-09-09T03:40:26;100569.94;;;16.05;78.50
68230;BME280;55048;52.220;5.160;2022-09-09T03:42:52;100542.38;;;15.99;78.19
68230;BME280;55048;52.220;5.160;2022-09-09T03:45:17;100558.47;;;15.99;78.34
68230;BME280;55048;52.220;5.160;2022-09-09T03:47:43;100529.06;;;15.84;78.38
68230;BME280;55048;52.220;5.160;2022-09-09T03:50:09;100539.22;;;15.87;78.37
68230;BME280;55048;52.220;5.160;2022-09-09T03:52:38;100539.22;;;15.87;78.27
68230;BME280;55048;52.220;5.160;2022-09-09T03:55:08;100560.84;;;16.01;78.43
68230;BME280;55048;52.220;5.160;2022-09-09T03:57:34;100551.00;;;15.91;78.53
68230;BME280;55048;52.220;5.160;2022-09-09T04:00:05;100541.94;;;15.82;78.64
68230;BME280;55048;52.220;5.160;2022-09-09T04:02:41;100542.78;;;15.77;78.81
68230;BME280;55048;52.220;5.160;2022-09-09T04:05:09;100558.84;;;15.82;78.80
68230;BME280;55048;52.220;5.160;2022-09-09T04:07:34;100554.59;;;15.76;79.37
68230;BME280;55048;52.220;5.160;2022-09-09T04:09:59;100560.22;;;15.75;79.51
68230;BME280;55048;52.220;5.160;2022-09-09T04:12:25;100551.38;;;15.74;79.10
68230;BME280;55048;52.220;5.160;2022-09-09T04:14:50;100541.75;;;15.68;79.12
68230;BME280;55048;52.220;5.160;2022-09-09T04:17:15;100551.34;;;15.79;78.86
68230;BME280;55048;52.220;5.160;2022-09-09T04:19:42;100531.59;;;15.65;79.25
68230;BME280;55048;52.220;5.160;2022-09-09T04:22:07;100514.19;;;15.57;78.88
68230;BME280;55048;52.220;5.160;2022-09-09T04:24:33;100536.38;;;15.73;78.51
68230;BME280;55048;52.220;5.160;2022-09-09T04:27:00;100520.06;;;15.65;78.91
68230;BME280;55048;52.220;5.160;2022-09-09T04:29:25;100500.53;;;15.54;78.85
68230;BME280;55048;52.220;5.160;2022-09-09T04:31:51;100533.41;;;15.75;79.09
68230;BME280;55048;52.220;5.160;2022-09-09T04:34:16;100539.00;;;15.78;78.44
68230;BME280;55048;52.220;5.160;2022-09-09T04:36:43;100493.81;;;15.56;78.51
68230;BME280;55048;52.220;5.160;2022-09-09T04:39:08;100525.66;;;15.73;78.73
68230;BME280;55048;52.220;5.160;2022-09-09T04:41:33;100504.81;;;15.55;78.67
68230;BME280;55048;52.220;5.160;2022-09-09T04:43:59;100508.84;;;15.57;78.75
68230;BME280;55048;52.220;5.160;2022-09-09T04:46:26;100521.91;;;15.69;78.93
68230;BME280;55048;52.220;5.160;2022-09-09T04:48:51;100530.25;;;15.68;79.22
68230;BME280;55048;52.220;5.160;2022-09-09T04:51:18;100512.53;;;15.62;79.22
68230;BME280;55048;52.220;5.160;2022-09-09T04:53:46;100515.28;;;15.51;79.69
68230;BME280;55048;52.220;5.160;2022-09-09T04:56:14;100510.97;;;15.55;79.39
68230;BME280;55048;52.220;5.160;2022-09-09T04:58:45;100515.53;;;15.55;79.73
68230;BME280;55048;52.220;5.160;2022-09-09T05:01:16;100523.84;;;15.64;79.42
68230;BME280;55048;52.220;5.160;2022-09-09T05:03:44;100524.34;;;15.66;79.44
68230;BME280;55048;52.220;5.160;2022-09-09T05:06:18;100526.22;;;15.65;79.22
68230;BME280;55048;52.220;5.160;2022-09-09T05:08:46;100502.41;;;15.53;79.29
68230;BME280;55048;52.220;5.160;2022-09-09T05:11:22;100516.84;;;15.68;79.64
68230;BME280;55048;52.220;5.160;2022-09-09T05:13:54;100498.69;;;15.49;79.66
68230;BME280;55048;52.220;5.160;2022-09-09T05:16:20;100514.72;;;15.60;79.49
68230;BME280;55048;52.220;5.160;2022-09-09T05:18:46;100491.19;;;15.46;79.41
68230;BME280;55048;52.220;5.160;2022-09-09T05:21:13;100516.59;;;15.64;79.50
68230;BME280;55048;52.220;5.160;2022-09-09T05:23:39;100492.25;;;15.50;79.98
68230;BME280;55048;52.220;5.160;2022-09-09T05:26:06;100519.78;;;15.61;79.78
68230;BME280;55048;52.220;5.160;2022-09-09T05:28:34;100510.47;;;15.53;79.71
68230;BME280;55048;52.220;5.160;2022-09-09T05:31:08;100530.78;;;15.65;79.80
68230;BME280;55048;52.220;5.160;2022-09-09T05:33:35;100529.19;;;15.64;80.20
68230;BME280;55048;52.220;5.160;2022-09-09T05:36:02;100524.88;;;15.63;79.85
68230;BME280;55048;52.220;5.160;2022-09-09T05:38:30;100530.78;;;15.60;80.06
68230;BME280;55048;52.220;5.160;2022-09-09T05:40:56;100529.69;;;15.61;80.27
68230;BME280;55048;52.220;5.160;2022-09-09T05:43:23;100487.72;;;15.46;79.76
68230;BME280;55048;52.220;5.160;2022-09-09T05:46:19;100514.97;;;15.63;80.32
68230;BME280;55048;52.220;5.160;2022-09-09T05:48:46;100490.88;;;15.58;79.74
68230;BME280;55048;52.220;5.160;2022-09-09T05:51:14;100490.31;;;15.56;79.76
68230;BME280;55048;52.220;5.160;2022-09-09T05:53:43;100505.88;;;15.64;79.84
68230;BME280;55048;52.220;5.160;2022-09-09T05:56:13;100526.41;;;15.79;79.96
68230;BME280;55048;52.220;5.160;2022-09-09T05:58:42;100497.53;;;15.61;80.23
68230;BME280;55048;52.220;5.160;2022-09-09T06:01:13;100533.63;;;15.84;80.58
68230;BME280;55048;52.220;5.160;2022-09-09T06:03:42;100507.19;;;15.67;79.69
68230;BME280;55048;52.220;5.160;2022-09-09T06:06:10;100518.66;;;15.77;80.13
68230;BME280;55048;52.220;5.160;2022-09-09T06:08:38;100530.38;;;15.87;80.14
68230;BME280;55048;52.220;5.160;2022-09-09T06:11:06;100526.88;;;15.91;80.57
68230;BME280;55048;52.220;5.160;2022-09-09T06:13:32;100514.28;;;15.87;80.41
68230;BME280;55048;52.220;5.160;2022-09-09T06:15:58;100510.25;;;15.89;80.14
68230;BME280;55048;52.220;5.160;2022-09-09T06:18:25;100520.84;;;16.10;79.40
68230;BME280;55048;52.220;5.160;2022-09-09T06:20:55;100517.06;;;16.11;79.75
68230;BME280;55048;52.220;5.160;2022-09-09T06:23:20;100492.50;;;15.93;80.31
68230;BME280;55048;52.220;5.160;2022-09-09T06:25:46;100522.09;;;16.17;79.70
68230;BME280;55048;52.220;5.160;2022-09-09T06:28:12;100504.78;;;16.04;80.34
68230;BME280;55048;52.220;5.160;2022-09-09T06:30:39;100496.44;;;16.06;79.91
68230;BME280;55048;52.220;5.160;2022-09-09T06:33:05;100484.56;;;16.12;79.49
68230;BME280;55048;52.220;5.160;2022-09-09T06:35:30;100520.44;;;16.50;79.03
68230;BME280;55048;52.220;5.160;2022-09-09T06:37:55;100527.66;;;16.55;79.37
68230;BME280;55048;52.220;5.160;2022-09-09T06:40:22;100518.84;;;16.49;79.43
68230;BME280;55048;52.220;5.160;2022-09-09T06:42:47;100516.47;;;16.48;79.68
68230;BME280;55048;52.220;5.160;2022-09-09T06:45:30;100491.38;;;16.33;80.03
68230;BME280;55048;52.220;5.160;2022-09-09T06:47:57;100507.28;;;16.54;79.21
68230;BME280;55048;52.220;5.160;2022-09-09T06:50:23;100519.72;;;16.69;79.28
68230;BME280;55048;52.220;5.160;2022-09-09T06:52:49;100494.59;;;16.59;79.30
68230;BME280;55048;52.220;5.160;2022-09-09T06:55:14;100505.81;;;16.67;78.82
68230;BME280;55048;52.220;5.160;2022-09-09T06:57:41;100519.94;;;16.77;79.11
68230;BME280;55048;52.220;5.160;2022-09-09T07:00:17;100508.25;;;16.63;79.49
68230;BME280;55048;52.220;5.160;2022-09-09T07:02:42;100512.09;;;16.57;79.63
68230;BME280;55048;52.220;5.160;2022-09-09T07:05:09;100510.47;;;16.56;79.58
68230;BME280;55048;52.220;5.160;2022-09-09T07:07:35;100509.78;;;16.69;79.40
68230;BME280;55048;52.220;5.160;2022-09-09T07:10:00;100535.16;;;16.87;79.15
68230;BME280;55048;52.220;5.160;2022-09-09T07:12:26;100526.88;;;17.07;78.81
68230;BME280;55048;52.220;5.160;2022-09-09T07:14:56;100531.56;;;17.21;78.22
68230;BME280;55048;52.220;5.160;2022-09-09T07:17:21;100530.19;;;17.42;77.46
68230;BME280;55048;52.220;5.160;2022-09-09T07:19:47;100502.06;;;17.34;77.61
68230;BME280;55048;52.220;5.160;2022-09-09T07:22:14;100528.16;;;17.53;77.32
68230;BME280;55048;52.220;5.160;2022-09-09T07:24:40;100524.59;;;17.57;77.29
68230;BME280;55048;52.220;5.160;2022-09-09T07:27:06;100477.13;;;17.29;77.17
68230;BME280;55048;52.220;5.160;2022-09-09T07:29:31;100498.72;;;17.43;77.06
68230;BME280;55048;52.220;5.160;2022-09-09T07:31:58;100491.81;;;17.55;76.76
68230;BME280;55048;52.220;5.160;2022-09-09T07:34:29;100510.69;;;17.74;76.47
68230;BME280;55048;52.220;5.160;2022-09-09T07:36:55;100515.25;;;17.74;76.49
68230;BME280;55048;52.220;5.160;2022-09-09T07:39:22;100518.16;;;17.77;76.52
68230;BME280;55048;52.220;5.160;2022-09-09T07:41:51;100519.28;;;17.71;76.02
68230;BME280;55048;52.220;5.160;2022-09-09T07:44:22;100505.50;;;17.59;76.31
68230;BME280;55048;52.220;5.160;2022-09-09T07:46:52;100518.41;;;17.57;76.48
68230;BME280;55048;52.220;5.160;2022-09-09T07:49:23;100524.97;;;17.51;76.36
68230;BME280;55048;52.220;5.160;2022-09-09T07:51:49;100483.38;;;17.24;76.52
68230;BME280;55048;52.220;5.160;2022-09-09T07:54:18;100515.16;;;17.60;76.17
68230;BME280;55048;52.220;5.160;2022-09-09T07:56:49;100522.53;;;17.73;76.13
68230;BME280;55048;52.220;5.160;2022-09-09T07:59:15;100522.38;;;17.83;75.86
68230;BME280;55048;52.220;5.160;2022-09-09T08:01:44;100524.41;;;17.92;75.32
68230;BME280;55048;52.220;5.160;2022-09-09T08:04:15;100530.19;;;17.99;75.00
68230;BME280;55048;52.220;5.160;2022-09-09T08:06:44;100514.44;;;17.92;75.16
68230;BME280;55048;52.220;5.160;2022-09-09T08:09:12;100502.81;;;17.78;75.03
68230;BME280;55048;52.220;5.160;2022-09-09T08:11:38;100533.19;;;17.97;74.84
68230;BME280;55048;52.220;5.160;2022-09-09T08:14:04;100515.63;;;17.86;74.97
68230;BME280;55048;52.220;5.160;2022-09-09T08:16:32;100511.69;;;17.78;74.42
68230;BME280;55048;52.220;5.160;2022-09-09T08:19:00;100516.28;;;17.78;74.96
68230;BME280;55048;52.220;5.160;2022-09-09T08:21:30;100524.09;;;17.93;74.52
68230;BME280;55048;52.220;5.160;2022-09-09T08:23:59;100510.59;;;17.79;75.01
68230;BME280;55048;52.220;5.160;2022-09-09T08:26:34;100534.44;;;18.05;74.33
68230;BME280;55048;52.220;5.160;2022-09-09T08:29:02;100535.38;;;18.14;73.93
68230;BME280;55048;52.220;5.160;2022-09-09T08:31:34;100509.19;;;18.01;73.63
68230;BME280;55048;52.220;5.160;2022-09-09T08:34:01;100529.50;;;18.26;73.24
68230;BME280;55048;52.220;5.160;2022-09-09T08:36:31;100530.03;;;18.28;72.89
68230;BME280;55048;52.220;5.160;2022-09-09T08:38:59;100544.59;;;18.41;72.83
68230;BME280;55048;52.220;5.160;2022-09-09T08:47:13;100543.59;;;18.36;72.60
68230;BME280;55048;52.220;5.160;2022-09-09T08:52:49;100542.31;;;18.48;71.20
68230;BME280;55048;52.220;5.160;2022-09-09T08:57:58;100542.31;;;18.48;71.52
68230;BME280;55048;52.220;5.160;2022-09-09T09:00:35;100509.34;;;18.09;71.58
68230;BME280;55048;52.220;5.160;2022-09-09T09:03:23;100556.94;;;18.42;72.08
68230;BME280;55048;52.220;5.160;2022-09-09T09:06:06;100555.31;;;18.27;72.24
68230;BME280;55048;52.220;5.160;2022-09-09T09:08:56;100504.31;;;18.03;72.14
68230;BME280;55048;52.220;5.160;2022-09-09T09:11:24;100541.69;;;18.37;71.92
68230;BME280;55048;52.220;5.160;2022-09-09T09:14:23;100555.34;;;18.41;72.28
68230;BME280;55048;52.220;5.160;2022-09-09T09:19:19;100553.81;;;18.53;72.21
68230;BME280;55048;52.220;5.160;2022-09-09T09:22:15;100553.00;;;18.53;71.73
68230;BME280;55048;52.220;5.160;2022-09-09T09:27:35;100563.16;;;18.42;71.46
68230;BME280;55048;52.220;5.160;2022-09-09T09:30:20;100555.75;;;18.34;72.08
68230;BME280;55048;52.220;5.160;2022-09-09T09:32:58;100562.72;;;18.35;72.28
68230;BME280;55048;52.220;5.160;2022-09-09T09:35:26;100548.44;;;18.21;71.87
68230;BME280;55048;52.220;5.160;2022-09-09T09:37:51;100562.94;;;18.39;71.96
68230;BME280;55048;52.220;5.160;2022-09-09T09:40:19;100563.31;;;18.32;72.17
68230;BME280;55048;52.220;5.160;2022-09-09T09:42:49;100539.34;;;18.17;72.29
68230;BME280;55048;52.220;5.160;2022-09-09T09:45:25;100544.41;;;18.18;72.46
68230;BME280;55048;52.220;5.160;2022-09-09T09:48:04;100542.03;;;18.17;72.46
68230;BME280;55048;52.220;5.160;2022-09-09T09:50:32;100564.00;;;18.24;72.51
68230;BME280;55048;52.220;5.160;2022-09-09T09:53:02;100558.31;;;18.25;72.29
68230;BME280;55048;52.220;5.160;2022-09-09T09:55:32;100555.31;;;18.27;72.22
68230;BME280;55048;52.220;5.160;2022-09-09T09:58:04;100566.75;;;18.38;72.50
68230;BME280;55048;52.220;5.160;2022-09-09T10:00:30;100557.13;;;18.31;73.80
68230;BME280;55048;52.220;5.160;2022-09-09T10:03:14;100549.94;;;18.27;73.83
68230;BME280;55048;52.220;5.160;2022-09-09T10:05:45;100561.06;;;18.39;73.43
68230;BME280;55048;52.220;5.160;2022-09-09T10:08:14;100562.84;;;18.44;74.22
68230;BME280;55048;52.220;5.160;2022-09-09T10:13:12;100557.69;;;18.47;73.74
68230;BME280;55048;52.220;5.160;2022-09-09T10:15:55;100562.34;;;18.42;74.15
68230;BME280;55048;52.220;5.160;2022-09-09T10:32:06;100567.84;;;18.83;74.22
68230;BME280;55048;52.220;5.160;2022-09-09T10:34:45;100570.25;;;18.84;74.16
68230;BME280;55048;52.220;5.160;2022-09-09T10:40:21;100561.47;;;18.93;77.00
68230;BME280;55048;52.220;5.160;2022-09-09T10:42:53;100518.03;;;19.22;74.91
68230;BME280;55048;52.220;5.160;2022-09-09T10:45:29;100550.41;;;19.72;74.65
68230;BME280;55048;52.220;5.160;2022-09-09T10:50:48;100553.78;;;19.91;74.35
68230;BME280;55048;52.220;5.160;2022-09-09T10:53:35;100550.19;;;20.04;74.01
68230;BME280;55048;52.220;5.160;2022-09-09T10:56:06;100542.94;;;19.69;74.23
68230;BME280;55048;52.220;5.160;2022-09-09T10:58:48;100539.94;;;19.70;74.45
68230;BME280;55048;52.220;5.160;2022-09-09T11:01:36;100553.72;;;19.69;74.72
68230;BME280;55048;52.220;5.160;2022-09-09T11:04:15;100528.88;;;19.44;74.46
68230;BME280;55048;52.220;5.160;2022-09-09T11:06:45;100535.84;;;19.59;74.52
68230;BME280;55048;52.220;5.160;2022-09-09T11:09:19;100538.81;;;19.71;74.38
68230;BME280;55048;52.220;5.160;2022-09-09T11:11:52;100553.72;;;19.69;73.76
68230;BME280;55048;52.220;5.160;2022-09-09T11:14:40;100541.75;;;19.47;74.21
68230;BME280;55048;52.220;5.160;2022-09-09T11:17:15;100541.16;;;19.64;73.99
68230;BME280;55048;52.220;5.160;2022-09-09T11:19:43;100530.53;;;19.68;73.28
68230;BME280;55048;52.220;5.160;2022-09-09T11:22:51;100562.28;;;19.84;73.06
68230;BME280;55048;52.220;5.160;2022-09-09T11:25:26;100559.22;;;19.77;72.82
68230;BME280;55048;52.220;5.160;2022-09-09T11:36:46;100540.28;;;19.41;73.39
68230;BME280;55048;52.220;5.160;2022-09-09T11:39:18;100538.94;;;19.52;73.10
68230;BME280;55048;52.220;5.160;2022-09-09T11:41:51;100517.69;;;19.51;72.98
68230;BME280;55048;52.220;5.160;2022-09-09T11:44:28;100517.09;;;19.54;73.60
68230;BME280;55048;52.220;5.160;2022-09-09T11:46:55;100525.97;;;19.54;73.41
68230;BME280;55048;52.220;5.160;2022-09-09T11:49:42;100525.25;;;19.49;74.13
68230;BME280;55048;52.220;5.160;2022-09-09T11:52:36;100527.00;;;19.45;74.38
68230;BME280;55048;52.220;5.160;2022-09-09T11:58:14;100534.00;;;19.18;75.04
68230;BME280;55048;52.220;5.160;2022-09-09T12:00:45;100541.09;;;19.00;74.49
68230;BME280;55048;52.220;5.160;2022-09-09T12:03:34;100541.00;;;18.78;77.25
68230;BME280;55048;52.220;5.160;2022-09-09T12:06:17;100529.91;;;18.66;76.11
68230;BME280;55048;52.220;5.160;2022-09-09T12:08:48;100543.91;;;18.81;76.01
68230;BME280;55048;52.220;5.160;2022-09-09T12:11:27;100539.50;;;18.85;77.09
68230;BME280;55048;52.220;5.160;2022-09-09T12:13:59;100543.09;;;18.95;76.83
68230;BME280;55048;52.220;5.160;2022-09-09T12:16:31;100537.09;;;18.98;77.21
68230;BME280;55048;52.220;5.160;2022-09-09T12:19:16;100542.41;;;19.17;77.12
68230;BME280;55048;52.220;5.160;2022-09-09T12:24:13;100539.41;;;19.18;76.43
68230;BME280;55048;52.220;5.160;2022-09-09T12:26:54;100527.03;;;18.76;77.52
68230;BME280;55048;52.220;5.160;2022-09-09T12:32:12;100534.09;;;19.41;76.30
68230;BME280;55048;52.220;5.160;2022-09-09T12:34:47;100535.66;;;19.55;75.81
68230;BME280;55048;52.220;5.160;2022-09-09T12:38:22;100532.75;;;19.66;75.21
68230;BME280;55048;52.220;5.160;2022-09-09T12:40:33;100528.47;;;19.65;75.14
68230;BME280;55048;52.220;5.160;2022-09-09T12:43:01;100535.66;;;19.55;74.80
68230;BME280;55048;52.220;5.160;2022-09-09T12:45:30;100533.34;;;19.49;74.74
68230;BME280;55048;52.220;5.160;2022-09-09T12:48:10;100522.69;;;19.30;74.52
68230;BME280;55048;52.220;5.160;2022-09-09T12:50:51;100530.28;;;19.42;74.39
68230;BME280;55048;52.220;5.160;2022-09-09T12:53:37;100514.91;;;19.42;74.61
68230;BME280;55048;52.220;5.160;2022-09-09T12:56:08;100518.72;;;19.41;74.25
68230;BME280;55048;52.220;5.160;2022-09-09T12:58:36;100514.69;;;19.38;74.50
68230;BME280;55048;52.220;5.160;2022-09-09T13:01:04;100522.31;;;19.36;74.23
68230;BME280;55048;52.220;5.160;2022-09-09T13:03:31;100518.94;;;19.31;74.24
68230;BME280;55048;52.220;5.160;2022-09-09T13:05:59;100523.50;;;19.30;74.61
68230;BME280;55048;52.220;5.160;2022-09-09T13:08:35;100507.97;;;19.14;74.46
68230;BME280;55048;52.220;5.160;2022-09-09T13:11:04;100496.19;;;18.96;75.01
68230;BME280;55048;52.220;5.160;2022-09-09T13:13:39;100528.63;;;19.18;74.96
68230;BME280;55048;52.220;5.160;2022-09-09T13:16:07;100505.97;;;18.92;75.15
68230;BME280;55048;52.220;5.160;2022-09-09T13:18:45;100525.53;;;18.97;75.26
68230;BME280;55048;52.220;5.160;2022-09-09T13:21:11;100526.16;;;19.08;74.87
68230;BME280;55048;52.220;5.160;2022-09-09T13:23:37;100531.63;;;19.03;75.24
68230;BME280;55048;52.220;5.160;2022-09-09T13:26:21;100513.66;;;18.98;75.21
68230;BME280;55048;52.220;5.160;2022-09-09T13:28:47;100512.78;;;19.03;74.66
68230;BME280;55048;52.220;5.160;2022-09-09T13:31:21;100514.84;;;19.20;74.51
68230;BME280;55048;52.220;5.160;2022-09-09T13:33:48;100498.66;;;19.20;73.88
68230;BME280;55048;52.220;5.160;2022-09-09T13:36:13;100497.75;;;19.24;74.15
68230;BME280;55048;52.220;5.160;2022-09-09T13:41:21;100519.28;;;19.38;73.05
68230;BME280;55048;52.220;5.160;2022-09-09T13:43:49;100502.91;;;19.34;73.02
68230;BME280;55048;52.220;5.160;2022-09-09T13:49:19;100500.34;;;19.16;73.33
68230;BME280;55048;52.220;5.160;2022-09-09T13:51:44;100523.28;;;19.54;72.82
68230;BME280;55048;52.220;5.160;2022-09-09T13:54:13;100490.81;;;19.46;72.58
68230;BME280;55048;52.220;5.160;2022-09-09T13:56:40;100509.47;;;19.56;72.13
68230;BME280;55048;52.220;5.160;2022-09-09T13:59:11;100521.84;;;19.71;72.23
68230;BME280;55048;52.220;5.160;2022-09-09T14:01:37;100519.75;;;19.68;71.71
68230;BME280;55048;52.220;5.160;2022-09-09T14:04:03;100529.66;;;19.58;72.11
68230;BME280;55048;52.220;5.160;2022-09-09T14:06:30;100515.56;;;19.61;72.05
68230;BME280;55048;52.220;5.160;2022-09-09T14:08:57;100531.06;;;19.56;71.93
68230;BME280;55048;52.220;5.160;2022-09-09T14:11:23;100520.97;;;19.48;72.77
68230;BME280;55048;52.220;5.160;2022-09-09T14:13:48;100522.69;;;19.44;72.32
68230;BME280;55048;52.220;5.160;2022-09-09T14:16:16;100520.81;;;19.30;72.97
68230;BME280;55048;52.220;5.160;2022-09-09T14:18:42;100533.22;;;19.31;73.31
68230;BME280;55048;52.220;5.160;2022-09-09T14:21:09;100506.06;;;19.14;73.06
68230;BME280;55048;52.220;5.160;2022-09-09T14:23:34;100514.25;;;19.23;73.52
68230;BME280;55048;52.220;5.160;2022-09-09T14:26:00;100504.72;;;19.25;73.62
68230;BME280;55048;52.220;5.160;2022-09-09T14:28:25;100507.53;;;19.20;74.21
68230;BME280;55048;52.220;5.160;2022-09-09T14:30:50;100524.59;;;19.29;74.54